createdAt,value
2019-04-29T00:00:53.857Z,6.07
2019-04-29T00:03:23.403Z,6.20
2019-04-29T00:05:52.631Z,6.57
2019-04-29T00:08:21.859Z,6.40
2019-04-29T00:10:51.379Z,6.30
2019-04-29T00:13:20.694Z,6.47
2019-04-29T00:16:08.950Z,6.73
2019-04-29T00:19:03.495Z,7.27
2019-04-29T00:21:32.895Z,6.30
2019-04-29T00:24:03.981Z,6.43
2019-04-29T00:26:33.498Z,6.80
2019-04-29T00:29:02.822Z,7.20
2019-04-29T00:31:32.141Z,6.80
2019-04-29T00:34:01.419Z,6.70
2019-04-29T00:36:35.451Z,7.40
2019-04-29T00:39:24.189Z,6.83
2019-04-29T00:42:09.109Z,6.33
2019-04-29T00:44:38.423Z,7.40
2019-04-29T00:47:07.721Z,6.60
2019-04-29T00:49:37.026Z,7.17
2019-04-29T00:52:06.350Z,6.90
2019-04-29T00:54:40.723Z,7.53
2019-04-29T00:57:09.959Z,6.67
2019-04-29T00:59:39.258Z,7.73
2019-04-29T01:02:08.766Z,7.40
2019-04-29T01:04:38.108Z,7.70
2019-04-29T01:07:07.537Z,7.77
2019-04-29T01:09:36.767Z,7.00
2019-04-29T01:12:06.597Z,7.07
2019-04-29T01:14:35.803Z,6.70
2019-04-29T01:17:05.106Z,6.40
2019-04-29T01:19:34.339Z,6.73
2019-04-29T01:22:03.660Z,7.87
2019-04-29T01:24:33.005Z,7.27
2019-04-29T01:27:17.545Z,7.73
2019-04-29T01:29:46.934Z,6.27
2019-04-29T01:32:16.243Z,7.00
2019-04-29T01:34:51.123Z,7.60
2019-04-29T01:37:22.064Z,6.90
2019-04-29T01:39:58.996Z,6.87
2019-04-29T01:42:32.123Z,7.37
2019-04-29T01:45:01.451Z,7.83
2019-04-29T01:47:30.675Z,7.30
2019-04-29T01:49:59.998Z,6.73
2019-04-29T01:52:29.236Z,7.47
2019-04-29T01:54:58.569Z,7.60
2019-04-29T01:57:27.815Z,7.90
2019-04-29T01:59:57.134Z,8.40
2019-04-29T02:02:26.459Z,8.73
2019-04-29T02:04:55.703Z,8.20
2019-04-29T02:07:24.971Z,8.97
2019-04-29T02:10:03.803Z,8.53
2019-04-29T02:12:33.046Z,8.70
2019-04-29T02:15:02.351Z,8.73
2019-04-29T02:17:31.639Z,9.03
2019-04-29T02:20:00.858Z,7.67
2019-04-29T02:22:38.466Z,9.53
2019-04-29T02:25:13.098Z,8.43
2019-04-29T02:27:42.869Z,7.67
2019-04-29T02:30:13.650Z,8.73
2019-04-29T02:32:42.887Z,7.73
2019-04-29T02:35:12.223Z,7.63
2019-04-29T02:37:43.104Z,7.80
2019-04-29T02:40:20.125Z,8.20
2019-04-29T02:42:58.713Z,7.63
2019-04-29T02:45:31.650Z,8.93
2019-04-29T02:48:00.956Z,8.73
2019-04-29T02:50:30.474Z,9.23
2019-04-29T02:52:59.714Z,8.37
2019-04-29T02:55:33.178Z,10.00
2019-04-29T02:58:12.666Z,11.07
2019-04-29T03:01:00.737Z,12.00
2019-04-29T03:03:42.273Z,12.30
2019-04-29T03:06:11.510Z,12.33
2019-04-29T03:08:40.758Z,12.73
2019-04-29T03:11:10.621Z,12.93
2019-04-29T03:13:39.862Z,12.90
2019-04-29T03:16:09.192Z,13.47
2019-04-29T03:18:42.309Z,14.03
2019-04-29T03:21:34.478Z,15.13
2019-04-29T03:24:03.791Z,13.70
2019-04-29T03:26:33.050Z,15.90
2019-04-29T03:29:02.294Z,15.37
2019-04-29T03:31:38.433Z,17.07
2019-04-29T03:34:02.625Z,17.57
2019-04-29T03:36:31.850Z,16.93
2019-04-29T03:39:01.111Z,14.87
2019-04-29T03:41:30.428Z,16.73
2019-04-29T03:43:59.755Z,16.70
2019-04-29T03:46:28.976Z,18.10
2019-04-29T03:48:58.304Z,18.60
2019-04-29T03:51:27.904Z,20.13
2019-04-29T03:53:57.142Z,18.70
2019-04-29T03:56:26.450Z,17.80
2019-04-29T03:58:55.682Z,19.63
2019-04-29T04:01:30.638Z,18.37
2019-04-29T04:04:07.417Z,18.47
2019-04-29T04:06:50.571Z,17.17
2019-04-29T04:09:22.300Z,17.20
2019-04-29T04:11:51.931Z,20.00
2019-04-29T04:14:21.284Z,18.70
2019-04-29T04:17:15.419Z,18.87
2019-04-29T04:19:45.253Z,20.07
2019-04-29T04:22:14.489Z,20.37
2019-04-29T04:24:43.733Z,18.40
2019-04-29T04:27:12.919Z,18.43
2019-04-29T04:29:42.248Z,19.50
2019-04-29T04:32:11.592Z,19.70
2019-04-29T04:34:40.889Z,18.20
2019-04-29T04:37:13.216Z,17.80
2019-04-29T04:39:43.939Z,17.67
2019-04-29T04:42:13.210Z,19.23
2019-04-29T04:44:49.138Z,16.87
2019-04-29T04:47:19.596Z,18.13
2019-04-29T04:49:49.121Z,18.77
2019-04-29T04:52:18.490Z,19.70
2019-04-29T04:54:49.728Z,18.27
2019-04-29T04:57:18.971Z,18.20
2019-04-29T04:59:48.281Z,18.83
2019-04-29T05:02:17.648Z,18.83
2019-04-29T05:04:46.951Z,19.43
2019-04-29T05:07:16.189Z,19.10
2019-04-29T05:09:45.363Z,19.60
2019-04-29T05:12:14.712Z,17.53
2019-04-29T05:14:43.968Z,20.43
2019-04-29T05:17:13.279Z,22.03
2019-04-29T05:19:42.538Z,20.83
2019-04-29T05:22:12.089Z,22.13
2019-04-29T05:24:41.399Z,21.43
2019-04-29T05:27:10.752Z,19.43
2019-04-29T05:29:40.011Z,29.60
2019-04-29T05:32:09.363Z,19.23
2019-04-29T05:34:41.686Z,21.43
2019-04-29T05:37:21.110Z,27.07
2019-04-29T05:39:50.417Z,20.43
2019-04-29T05:42:19.691Z,19.53
2019-04-29T05:44:55.207Z,19.07
2019-04-29T05:47:39.145Z,20.13
2019-04-29T05:50:27.704Z,21.17
2019-04-29T05:53:15.993Z,25.20
2019-04-29T05:55:42.706Z,21.83
2019-04-29T05:58:12.832Z,21.10
2019-04-29T06:00:46.090Z,21.53
2019-04-29T06:03:15.329Z,22.30
2019-04-29T06:05:44.531Z,21.83
2019-04-29T06:08:13.767Z,21.27
2019-04-29T06:10:43.087Z,22.23
2019-04-29T06:13:12.441Z,21.17
2019-04-29T06:15:41.687Z,22.57
2019-04-29T06:18:11.440Z,22.03
2019-04-29T06:20:40.753Z,22.10
2019-04-29T06:23:10.033Z,21.40
2019-04-29T06:25:39.279Z,22.27
2019-04-29T06:28:08.534Z,23.37
2019-04-29T06:30:40.560Z,22.43
2019-04-29T06:33:08.895Z,21.07
2019-04-29T06:35:38.125Z,23.50
2019-04-29T06:38:07.297Z,22.27
2019-04-29T06:40:36.982Z,23.50
2019-04-29T06:43:06.461Z,22.47
2019-04-29T06:45:36.041Z,24.47
2019-04-29T06:48:05.494Z,25.77
2019-04-29T06:50:34.751Z,22.23
2019-04-29T06:53:04.427Z,30.17
2019-04-29T06:55:33.952Z,24.83
2019-04-29T06:58:03.197Z,23.57
2019-04-29T07:00:32.572Z,23.60
2019-04-29T07:03:01.911Z,25.47
2019-04-29T07:05:31.222Z,25.77
2019-04-29T07:08:00.530Z,30.40
2019-04-29T07:10:29.778Z,33.20
2019-04-29T07:12:59.026Z,29.27
2019-04-29T07:15:28.341Z,26.97
2019-04-29T07:17:57.610Z,29.67
2019-04-29T07:20:26.794Z,30.67
2019-04-29T07:22:56.520Z,38.17
2019-04-29T07:25:28.718Z,30.77
2019-04-29T07:27:57.923Z,34.37
2019-04-29T07:30:29.260Z,25.10
2019-04-29T07:32:58.114Z,23.80
2019-04-29T07:35:27.359Z,25.10
2019-04-29T07:37:56.666Z,26.83
2019-04-29T07:40:25.855Z,26.17
2019-04-29T07:42:55.107Z,28.67
2019-04-29T07:45:44.610Z,27.87
2019-04-29T07:48:14.155Z,29.53
2019-04-29T07:50:43.513Z,29.50
2019-04-29T07:53:12.813Z,38.27
2019-04-29T07:55:42.095Z,40.50
2019-04-29T07:58:11.403Z,38.50
2019-04-29T08:00:44.539Z,33.87
2019-04-29T08:03:13.389Z,34.20
2019-04-29T08:05:42.734Z,29.13
2019-04-29T08:08:12.088Z,28.30
2019-04-29T08:10:53.741Z,29.23
2019-04-29T08:13:13.499Z,32.80
2019-04-29T08:15:43.591Z,35.07
2019-04-29T08:18:16.182Z,31.27
2019-04-29T08:20:44.006Z,26.83
2019-04-29T08:23:13.241Z,27.93
2019-04-29T08:25:42.478Z,29.23
2019-04-29T08:28:11.796Z,27.87
2019-04-29T08:30:41.916Z,30.13
2019-04-29T08:33:13.159Z,28.73
2019-04-29T08:35:42.729Z,30.87
2019-04-29T08:38:12.051Z,32.07
2019-04-29T08:40:45.305Z,29.13
2019-04-29T08:43:37.266Z,32.43
2019-04-29T08:46:09.837Z,27.37
2019-04-29T08:48:39.101Z,28.80
2019-04-29T08:51:08.448Z,27.37
2019-04-29T08:53:37.770Z,30.03
2019-04-29T08:56:10.240Z,31.33
2019-04-29T08:58:39.492Z,33.40
2019-04-29T09:01:08.882Z,33.33
2019-04-29T09:03:40.410Z,32.87
2019-04-29T09:06:09.073Z,30.67
2019-04-29T09:08:53.504Z,35.17
2019-04-29T09:11:13.044Z,32.03
2019-04-29T09:13:40.062Z,30.07
2019-04-29T09:16:09.625Z,29.70
2019-04-29T09:18:38.870Z,32.33
2019-04-29T09:21:08.145Z,32.93
2019-04-29T09:23:38.100Z,33.07
2019-04-29T09:26:32.167Z,41.13
2019-04-29T09:29:20.489Z,38.47
2019-04-29T09:31:49.794Z,35.07
2019-04-29T09:34:24.810Z,32.17
2019-04-29T09:36:51.793Z,30.77
2019-04-29T09:39:21.429Z,32.53
2019-04-29T09:42:18.806Z,29.47
2019-04-29T09:45:05.991Z,29.13
2019-04-29T09:47:35.339Z,31.00
2019-04-29T09:50:05.046Z,34.57
2019-04-29T09:52:34.435Z,38.10
2019-04-29T09:55:05.633Z,36.73
2019-04-29T09:57:34.735Z,34.23
2019-04-29T10:00:10.635Z,34.83
2019-04-29T10:02:54.100Z,33.90
2019-04-29T10:05:31.814Z,37.57
2019-04-29T10:08:01.078Z,37.23
2019-04-29T10:10:30.713Z,35.13
2019-04-29T10:13:00.025Z,36.13
2019-04-29T10:15:46.923Z,36.80
2019-04-29T10:18:25.036Z,37.43
2019-04-29T10:21:02.311Z,34.73
2019-04-29T10:23:31.645Z,35.20
2019-04-29T10:26:00.974Z,35.30
2019-04-29T10:28:30.314Z,40.63
2019-04-29T10:30:59.732Z,35.87
2019-04-29T10:33:28.986Z,35.50
2019-04-29T10:35:58.338Z,34.70
2019-04-29T10:38:27.578Z,37.77
2019-04-29T10:41:14.597Z,34.90
2019-04-29T10:44:02.876Z,34.00
2019-04-29T10:47:01.082Z,38.03
2019-04-29T10:49:34.778Z,36.53
2019-04-29T10:52:05.142Z,36.93
2019-04-29T10:54:34.554Z,37.17
2019-04-29T10:57:03.910Z,39.27
2019-04-29T10:59:36.244Z,42.87
2019-04-29T11:02:25.503Z,39.60
2019-04-29T11:04:57.927Z,36.80
2019-04-29T11:07:35.062Z,37.77
2019-04-29T11:10:10.293Z,36.23
2019-04-29T11:12:39.602Z,37.90
2019-04-29T11:15:09.882Z,38.63
2019-04-29T11:17:44.465Z,38.17
2019-04-29T11:20:15.510Z,40.43
2019-04-29T11:22:47.172Z,40.17
2019-04-29T11:25:30.779Z,44.70
2019-04-29T11:28:00.699Z,61.07
2019-04-29T11:30:34.787Z,82.60
2019-04-29T11:33:20.481Z,79.83
2019-04-29T11:36:03.928Z,54.17
2019-04-29T11:38:32.945Z,40.40
2019-04-29T11:41:03.212Z,42.50
2019-04-29T11:43:32.522Z,42.63
2019-04-29T11:46:01.842Z,44.43
2019-04-29T11:48:31.191Z,45.47
2019-04-29T11:51:25.554Z,44.70
2019-04-29T11:53:54.714Z,46.90
2019-04-29T11:56:24.027Z,47.43
2019-04-29T11:59:02.897Z,45.37
2019-04-29T12:01:46.947Z,45.33
2019-04-29T12:04:42.124Z,46.20
2019-04-29T12:07:11.047Z,51.00
2019-04-29T12:09:40.400Z,48.37
2019-04-29T12:12:12.828Z,52.40
2019-04-29T12:14:57.028Z,68.33
2019-04-29T12:17:42.783Z,61.67
2019-04-29T12:20:22.078Z,57.37
2019-04-29T12:22:51.490Z,67.40
2019-04-29T12:25:23.021Z,60.90
2019-04-29T12:28:01.218Z,64.53
2019-04-29T12:30:25.376Z,55.77
2019-04-29T12:33:06.815Z,59.00
2019-04-29T12:35:53.009Z,53.37
2019-04-29T12:38:49.415Z,63.83
2019-04-29T12:41:29.874Z,66.70
2019-04-29T12:44:02.094Z,71.33
2019-04-29T12:46:51.042Z,63.80
2019-04-29T12:49:20.435Z,57.43
2019-04-29T12:51:49.847Z,59.93
2019-04-29T12:54:19.175Z,59.27
2019-04-29T12:56:49.562Z,97.70
2019-04-29T12:59:18.976Z,85.10
2019-04-29T13:01:59.521Z,79.43
2019-04-29T13:04:49.800Z,60.70
2019-04-29T13:07:23.487Z,64.10
2019-04-29T13:09:54.955Z,70.03
2019-04-29T13:12:24.292Z,59.53
2019-04-29T13:15:12.888Z,56.17
2019-04-29T13:18:03.703Z,61.33
2019-04-29T13:20:32.469Z,52.57
2019-04-29T13:23:16.741Z,54.93
2019-04-29T13:25:32.685Z,50.63
2019-04-29T13:28:03.889Z,53.97
2019-04-29T13:30:33.014Z,55.87
2019-04-29T13:33:06.318Z,55.87
2019-04-29T13:35:33.395Z,58.60
2019-04-29T13:38:02.669Z,65.37
2019-04-29T13:40:37.240Z,58.43
2019-04-29T13:43:02.982Z,64.80
2019-04-29T13:45:45.179Z,55.87
2019-04-29T13:48:55.319Z,52.77
2019-04-29T13:51:34.516Z,58.03
2019-04-29T13:53:48.727Z,55.87
2019-04-29T13:56:32.719Z,55.70
2019-04-29T13:58:49.830Z,59.10
2019-04-29T14:01:58.472Z,58.10
2019-04-29T14:04:33.957Z,54.43
2019-04-29T14:07:03.523Z,52.27
2019-04-29T14:09:35.088Z,52.17
2019-04-29T14:12:42.341Z,48.67
2019-04-29T14:14:35.267Z,49.33
2019-04-29T14:17:24.328Z,47.97
2019-04-29T14:19:42.099Z,49.63
2019-04-29T14:22:21.056Z,49.00
2019-04-29T14:24:38.623Z,46.80
2019-04-29T14:27:07.906Z,50.83
2019-04-29T14:29:37.206Z,52.20
2019-04-29T14:32:06.730Z,50.33
2019-04-29T14:34:44.487Z,55.47
2019-04-29T14:37:24.678Z,103.00
2019-04-29T14:39:50.441Z,86.23
2019-04-29T14:42:37.394Z,83.47
2019-04-29T14:45:24.926Z,84.03
2019-04-29T14:48:13.241Z,86.17
2019-04-29T14:50:43.523Z,78.83
2019-04-29T14:53:12.828Z,56.03
2019-04-29T14:55:42.111Z,67.90
2019-04-29T14:58:11.948Z,67.70
2019-04-29T15:00:59.366Z,64.60
2019-04-29T15:03:31.242Z,62.33
2019-04-29T15:06:00.580Z,57.47
2019-04-29T15:08:31.944Z,57.60
2019-04-29T15:11:04.225Z,55.17
2019-04-29T15:13:32.577Z,58.03
2019-04-29T15:16:14.006Z,60.80
2019-04-29T15:18:52.986Z,74.60
2019-04-29T15:21:42.600Z,62.90
2019-04-29T15:24:07.575Z,52.83
2019-04-29T15:26:36.849Z,82.87
2019-04-29T15:29:06.154Z,48.47
2019-04-29T15:31:35.493Z,47.80
2019-04-29T15:34:08.827Z,44.83
2019-04-29T15:36:35.978Z,42.13
2019-04-29T15:39:11.199Z,48.43
2019-04-29T15:41:38.440Z,54.00
2019-04-29T15:44:09.058Z,51.83
2019-04-29T15:46:46.387Z,48.10
2019-04-29T15:49:09.959Z,56.80
2019-04-29T15:51:39.252Z,64.60
2019-04-29T15:54:09.192Z,53.57
2019-04-29T15:56:40.021Z,50.30
2019-04-29T15:59:10.350Z,50.43
2019-04-29T16:01:41.651Z,43.60
2019-04-29T16:04:14.672Z,54.37
2019-04-29T16:06:52.654Z,64.57
2019-04-29T16:09:51.155Z,74.23
2019-04-29T16:12:18.553Z,58.77
2019-04-29T16:14:49.172Z,52.17
2019-04-29T16:17:20.637Z,62.83
2019-04-29T16:19:49.687Z,56.20
2019-04-29T16:22:19.789Z,48.87
2019-04-29T16:24:49.683Z,43.40
2019-04-29T16:27:19.003Z,48.70
2019-04-29T16:29:51.567Z,47.80
2019-04-29T16:32:28.858Z,47.43
2019-04-29T16:34:58.133Z,60.50
2019-04-29T16:37:31.924Z,49.73
2019-04-29T16:39:59.858Z,72.43
2019-04-29T16:42:35.487Z,121.00
2019-04-29T16:45:06.053Z,129.50
2019-04-29T16:47:36.335Z,162.40
2019-04-29T16:50:06.474Z,198.00
2019-04-29T16:52:35.804Z,102.43
2019-04-29T16:55:06.067Z,76.63
2019-04-29T16:57:35.577Z,67.67
2019-04-29T17:00:12.911Z,73.27
2019-04-29T17:02:37.501Z,71.90
2019-04-29T17:05:07.143Z,64.60
2019-04-29T17:07:36.510Z,64.53
2019-04-29T17:10:20.038Z,67.47
2019-04-29T17:12:50.970Z,60.80
2019-04-29T17:15:25.210Z,60.97
2019-04-29T17:17:51.255Z,55.20
2019-04-29T17:20:20.948Z,75.87
2019-04-29T17:22:51.067Z,66.63
2019-04-29T17:25:20.489Z,83.73
2019-04-29T17:28:11.567Z,86.70
2019-04-29T17:31:14.574Z,112.73
2019-04-29T17:33:49.817Z,110.30
2019-04-29T17:36:23.658Z,106.73
2019-04-29T17:38:50.142Z,103.40
2019-04-29T17:41:19.578Z,105.23
2019-04-29T17:44:07.921Z,107.00
2019-04-29T17:47:06.992Z,89.33
2019-04-29T17:49:54.056Z,95.67
2019-04-29T17:52:29.263Z,98.07
2019-04-29T17:55:15.196Z,90.07
2019-04-29T17:58:08.579Z,88.13
2019-04-29T18:01:05.999Z,86.00
2019-04-29T18:03:55.874Z,88.77
2019-04-29T18:06:34.842Z,74.70
2019-04-29T18:09:31.170Z,95.43
2019-04-29T18:12:09.726Z,96.40
2019-04-29T18:14:41.738Z,130.70
2019-04-29T18:17:10.897Z,110.97
2019-04-29T18:19:50.317Z,96.07
2019-04-29T18:22:36.507Z,94.77
2019-04-29T18:25:31.062Z,84.07
2019-04-29T18:28:00.414Z,96.40
2019-04-29T18:30:35.948Z,89.97
2019-04-29T18:33:01.398Z,89.20
2019-04-29T18:35:30.647Z,89.63
2019-04-29T18:38:00.000Z,82.73
2019-04-29T18:40:30.217Z,91.03
2019-04-29T18:42:59.708Z,113.13
2019-04-29T18:45:29.634Z,112.50
2019-04-29T18:47:59.976Z,159.00
2019-04-29T18:50:29.662Z,114.50
2019-04-29T18:53:00.218Z,121.07
2019-04-29T18:55:29.413Z,117.37
2019-04-29T18:57:58.767Z,92.83
2019-04-29T19:00:28.107Z,104.77
2019-04-29T19:03:00.851Z,110.80
2019-04-29T19:05:35.559Z,98.77
2019-04-29T19:08:12.350Z,94.47
2019-04-29T19:10:37.426Z,127.30
2019-04-29T19:13:12.798Z,212.17
2019-04-29T19:15:39.905Z,117.53
2019-04-29T19:18:12.291Z,84.83
2019-04-29T19:20:39.977Z,53.53
2019-04-29T19:23:10.294Z,58.37
2019-04-29T19:25:41.615Z,72.57
2019-04-29T19:28:14.346Z,56.77
2019-04-29T19:30:41.900Z,54.97
2019-04-29T19:33:11.234Z,54.97
2019-04-29T19:35:40.568Z,51.60
2019-04-29T19:38:12.434Z,50.73
2019-04-29T19:40:42.645Z,48.37
2019-04-29T19:43:17.407Z,42.47
2019-04-29T19:45:44.621Z,60.60
2019-04-29T19:48:16.103Z,59.00
2019-04-29T19:50:50.119Z,138.20
2019-04-29T19:53:16.902Z,107.50
2019-04-29T19:55:46.214Z,74.27
2019-04-29T19:58:15.785Z,54.70
2019-04-29T20:00:47.317Z,38.37
2019-04-29T20:03:23.557Z,37.83
2019-04-29T20:05:52.624Z,35.97
2019-04-29T20:08:39.650Z,36.30
2019-04-29T20:10:53.784Z,33.80
2019-04-29T20:13:30.251Z,40.13
2019-04-29T20:16:24.998Z,67.47
2019-04-29T20:19:12.307Z,81.73
2019-04-29T20:21:36.408Z,73.40
2019-04-29T20:24:09.403Z,62.80
2019-04-29T20:26:37.556Z,59.47
2019-04-29T20:29:07.794Z,55.43
2019-04-29T20:31:38.916Z,47.53
2019-04-29T20:34:08.304Z,42.33
2019-04-29T20:36:41.659Z,38.00
2019-04-29T20:39:15.200Z,34.07
2019-04-29T20:41:43.227Z,38.73
2019-04-29T20:44:11.823Z,35.17
2019-04-29T20:46:53.020Z,35.77
2019-04-29T20:49:12.974Z,45.70
2019-04-29T20:51:49.665Z,44.33
2019-04-29T20:54:19.662Z,34.30
2019-04-29T20:56:49.023Z,36.67
2019-04-29T20:59:18.800Z,28.67
2019-04-29T21:01:52.652Z,29.77
2019-04-29T21:04:31.276Z,24.80
2019-04-29T21:07:01.808Z,25.87
2019-04-29T21:09:27.546Z,25.10
2019-04-29T21:12:15.733Z,24.83
2019-04-29T21:14:50.070Z,23.57
2019-04-29T21:17:28.583Z,28.37
2019-04-29T21:19:50.419Z,39.77
2019-04-29T21:22:23.427Z,42.63
2019-04-29T21:24:53.871Z,36.90
2019-04-29T21:27:22.297Z,34.13
2019-04-29T21:29:54.134Z,27.47
2019-04-29T21:32:25.600Z,29.17
2019-04-29T21:35:15.132Z,33.13
2019-04-29T21:38:05.162Z,30.37
2019-04-29T21:40:40.071Z,25.23
2019-04-29T21:43:13.788Z,24.37
2019-04-29T21:45:44.956Z,27.27
2019-04-29T21:48:14.707Z,25.10
2019-04-29T21:50:44.910Z,23.63
2019-04-29T21:53:15.119Z,24.10
2019-04-29T21:55:45.793Z,23.73
2019-04-29T21:58:15.495Z,22.37
2019-04-29T22:00:45.553Z,23.10
2019-04-29T22:03:19.880Z,23.77
2019-04-29T22:05:49.231Z,20.63
2019-04-29T22:08:20.761Z,19.87
2019-04-29T22:10:49.139Z,20.53
2019-04-29T22:13:18.429Z,21.40
2019-04-29T22:15:47.748Z,21.10
2019-04-29T22:18:18.074Z,21.07
2019-04-29T22:20:47.707Z,22.03
2019-04-29T22:23:17.426Z,20.83
2019-04-29T22:25:47.300Z,23.43
2019-04-29T22:28:19.804Z,23.83
2019-04-29T22:30:49.823Z,22.27
2019-04-29T22:33:19.176Z,23.00
2019-04-29T22:35:48.539Z,29.83
2019-04-29T22:38:18.680Z,22.97
2019-04-29T22:40:48.925Z,21.00
2019-04-29T22:43:25.373Z,21.23
2019-04-29T22:45:54.768Z,20.70
2019-04-29T22:48:25.877Z,20.37
2019-04-29T22:50:55.627Z,20.40
2019-04-29T22:53:25.134Z,21.47
2019-04-29T22:55:56.399Z,20.17
2019-04-29T22:58:25.370Z,19.90
2019-04-29T23:00:54.695Z,20.80
2019-04-29T23:03:24.091Z,20.87
2019-04-29T23:05:53.414Z,21.10
2019-04-29T23:08:22.738Z,20.33
2019-04-29T23:10:52.082Z,20.43
2019-04-29T23:13:21.422Z,22.23
2019-04-29T23:15:53.828Z,21.50
2019-04-29T23:18:26.690Z,22.47
2019-04-29T23:21:18.033Z,21.53
2019-04-29T23:23:50.277Z,22.33
2019-04-29T23:26:19.604Z,21.77
2019-04-29T23:28:48.954Z,19.97
2019-04-29T23:31:22.609Z,21.10
2019-04-29T23:33:53.175Z,22.70
2019-04-29T23:36:20.959Z,21.73
2019-04-29T23:38:50.217Z,20.27
2019-04-29T23:41:19.593Z,20.63
2019-04-29T23:43:48.922Z,21.57
2019-04-29T23:46:18.278Z,20.33
2019-04-29T23:48:47.635Z,22.33
2019-04-29T23:51:16.956Z,21.20
2019-04-29T23:53:46.334Z,20.83
2019-04-29T23:56:15.877Z,20.87
2019-04-29T23:58:55.271Z,19.60
